createdAt,value
2023-03-06T00:02:01.225Z,57.51
2023-03-06T00:07:06.664Z,57.37
2023-03-06T00:12:12.202Z,57.43
2023-03-06T00:17:17.619Z,57.43
2023-03-06T00:22:23.067Z,57.29
2023-03-06T00:27:28.518Z,57.52
2023-03-06T00:32:34.001Z,57.44
2023-03-06T00:37:40.701Z,57.45
2023-03-06T00:42:46.995Z,57.27
2023-03-06T00:47:52.656Z,57.57
2023-03-06T00:52:58.117Z,57.36
2023-03-06T00:58:03.502Z,57.40
2023-03-06T01:03:09.072Z,57.60
2023-03-06T01:08:14.537Z,57.76
2023-03-06T01:13:20.069Z,57.91
2023-03-06T01:18:25.582Z,58.16
2023-03-06T01:23:31.093Z,58.32
2023-03-06T01:28:39.282Z,58.29
2023-03-06T01:33:44.925Z,58.44
2023-03-06T01:38:51.395Z,58.67
2023-03-06T01:43:57.415Z,58.73
2023-03-06T01:49:07.009Z,59.03
2023-03-06T01:54:15.432Z,59.19
2023-03-06T01:59:22.814Z,59.16
2023-03-06T02:04:28.853Z,59.30
2023-03-06T02:09:36.528Z,59.75
2023-03-06T02:14:43.709Z,59.21
2023-03-06T02:19:57.828Z,59.05
2023-03-06T02:25:09.453Z,58.74
2023-03-06T02:30:17.707Z,58.74
2023-03-06T02:35:26.426Z,58.36
2023-03-06T02:40:32.410Z,58.13
2023-03-06T02:45:47.509Z,57.66
2023-03-06T02:50:53.075Z,57.75
2023-03-06T02:55:59.614Z,58.34
2023-03-06T03:01:05.926Z,58.92
2023-03-06T03:06:12.211Z,59.79
2023-03-06T03:11:18.849Z,60.32
2023-03-06T03:16:25.196Z,61.12
2023-03-06T03:21:30.772Z,62.10
2023-03-06T03:26:36.520Z,62.58
2023-03-06T03:31:43.731Z,62.76
2023-03-06T03:36:49.390Z,63.82
2023-03-06T03:41:55.178Z,64.21
2023-03-06T03:47:00.961Z,64.85
2023-03-06T03:52:08.170Z,64.94
2023-03-06T03:57:14.564Z,65.41
2023-03-06T04:02:25.644Z,65.50
2023-03-06T04:07:35.955Z,65.77
2023-03-06T04:12:41.489Z,66.00
2023-03-06T04:17:48.371Z,66.35
2023-03-06T04:22:55.555Z,66.66
2023-03-06T04:28:01.362Z,66.81
2023-03-06T04:33:07.764Z,67.02
2023-03-06T04:38:14.165Z,67.14
2023-03-06T04:43:19.683Z,67.07
2023-03-06T04:48:25.163Z,67.21
2023-03-06T04:53:30.618Z,67.56
2023-03-06T04:58:36.242Z,67.82
2023-03-06T05:03:41.958Z,67.00
2023-03-06T05:08:47.422Z,66.98
2023-03-06T05:13:53.245Z,67.70
2023-03-06T05:18:59.034Z,67.49
2023-03-06T05:24:04.681Z,67.35
2023-03-06T05:29:10.136Z,67.13
2023-03-06T05:34:18.863Z,66.68
2023-03-06T05:39:24.404Z,66.85
2023-03-06T05:44:34.576Z,66.69
2023-03-06T05:49:40.101Z,66.43
2023-03-06T05:54:45.683Z,66.40
2023-03-06T05:59:52.103Z,66.48
2023-03-06T06:04:57.654Z,66.47
2023-03-06T06:10:04.061Z,66.51
2023-03-06T06:15:11.874Z,66.95
2023-03-06T06:20:18.040Z,66.28
2023-03-06T06:25:23.565Z,66.24
2023-03-06T06:30:29.023Z,66.40
2023-03-06T06:35:38.576Z,66.61
2023-03-06T06:40:49.305Z,66.87
2023-03-06T06:45:52.149Z,66.63
2023-03-06T06:50:59.067Z,66.41
2023-03-06T06:56:04.852Z,67.15
2023-03-06T07:01:12.498Z,67.11
2023-03-06T07:06:18.164Z,67.09
2023-03-06T07:11:23.846Z,67.37
2023-03-06T07:16:29.483Z,67.59
2023-03-06T07:21:35.206Z,67.53
2023-03-06T07:26:40.840Z,67.33
2023-03-06T07:31:46.508Z,67.76
2023-03-06T07:36:52.091Z,67.54
2023-03-06T07:41:58.779Z,67.74
2023-03-06T07:47:05.161Z,67.63
2023-03-06T07:52:10.944Z,67.29
2023-03-06T07:57:17.057Z,67.33
2023-03-06T08:02:22.729Z,67.04
2023-03-06T08:07:30.013Z,67.57
2023-03-06T08:12:35.590Z,67.66
2023-03-06T08:17:41.407Z,68.29
2023-03-06T08:22:47.751Z,67.59
2023-03-06T08:27:53.226Z,68.04
2023-03-06T08:32:58.736Z,69.16
2023-03-06T08:38:04.193Z,68.98
2023-03-06T08:43:14.322Z,68.67
2023-03-06T08:48:19.919Z,69.40
2023-03-06T08:53:40.448Z,69.80
2023-03-06T08:58:33.226Z,69.75
2023-03-06T09:03:38.605Z,69.55
2023-03-06T09:08:44.917Z,70.49
2023-03-06T09:13:50.976Z,69.11
2023-03-06T09:18:57.968Z,68.81
2023-03-06T09:24:04.089Z,67.79
2023-03-06T09:29:09.881Z,69.69
2023-03-06T09:34:15.446Z,67.58
2023-03-06T09:39:20.862Z,69.81
2023-03-06T09:44:32.308Z,67.01
2023-03-06T09:50:00.266Z,69.33
2023-03-06T09:55:21.592Z,68.09
2023-03-06T10:00:35.913Z,67.91
2023-03-06T10:05:44.529Z,68.54
2023-03-06T10:11:05.308Z,68.54
2023-03-06T10:16:25.613Z,68.19
2023-03-06T10:21:43.822Z,67.91
2023-03-06T10:27:12.239Z,67.89
2023-03-06T10:32:48.314Z,67.89
2023-03-06T10:37:47.956Z,67.36
2023-03-06T10:43:09.350Z,68.31
2023-03-06T10:48:14.724Z,67.11
2023-03-06T10:53:33.066Z,66.54
2023-03-06T10:58:38.429Z,66.69
2023-03-06T11:03:43.889Z,67.02
2023-03-06T11:08:49.424Z,66.45
2023-03-06T11:13:59.905Z,66.45
2023-03-06T11:19:07.952Z,65.80
2023-03-06T11:24:21.574Z,65.80
2023-03-06T11:29:35.279Z,66.71
2023-03-06T11:34:59.374Z,65.34
2023-03-06T11:40:33.245Z,63.44
2023-03-06T11:45:47.215Z,62.62
2023-03-06T11:50:56.204Z,62.23
2023-03-06T11:56:23.005Z,61.40
2023-03-06T12:01:34.261Z,60.65
2023-03-06T12:07:07.973Z,60.49
2023-03-06T12:12:22.346Z,60.15
2023-03-06T12:17:47.626Z,59.45
2023-03-06T12:22:57.653Z,59.77
2023-03-06T12:28:18.606Z,57.98
2023-03-06T12:33:40.980Z,57.96
2023-03-06T12:38:50.933Z,57.98
2023-03-06T12:44:23.673Z,56.73
2023-03-06T12:49:34.158Z,56.58
2023-03-06T12:54:42.142Z,56.45
2023-03-06T12:59:50.053Z,56.39
2023-03-06T13:05:13.503Z,54.36
2023-03-06T13:10:36.717Z,55.81
2023-03-06T13:15:47.288Z,55.08
2023-03-06T13:20:54.718Z,55.01
2023-03-06T13:26:12.304Z,55.20
2023-03-06T13:31:31.882Z,56.02
2023-03-06T13:36:39.843Z,55.38
2023-03-06T13:41:59.762Z,53.91
2023-03-06T13:47:23.435Z,54.49
2023-03-06T13:52:41.031Z,52.27
2023-03-06T13:57:49.521Z,52.64
2023-03-06T14:03:26.615Z,52.60
2023-03-06T14:08:35.570Z,51.64
2023-03-06T14:13:48.439Z,51.56
2023-03-06T14:18:56.832Z,50.32
2023-03-06T14:24:05.163Z,51.74
2023-03-06T14:29:25.324Z,50.09
2023-03-06T14:34:33.883Z,51.18
2023-03-06T14:39:44.988Z,49.09
2023-03-06T14:44:52.942Z,50.05
2023-03-06T14:50:21.840Z,48.77
2023-03-06T14:55:29.516Z,49.25
2023-03-06T15:00:38.451Z,49.09
2023-03-06T15:05:46.655Z,49.96
2023-03-06T15:11:01.599Z,49.55
2023-03-06T15:16:10.155Z,49.25
2023-03-06T15:21:21.367Z,49.35
2023-03-06T15:26:33.234Z,49.71
2023-03-06T15:31:46.871Z,49.14
2023-03-06T15:36:55.918Z,49.04
2023-03-06T15:42:22.546Z,49.77
2023-03-06T15:47:28.054Z,48.52
2023-03-06T15:52:33.511Z,49.35
2023-03-06T15:57:40.890Z,50.08
2023-03-06T16:02:47.328Z,50.60
2023-03-06T16:07:53.006Z,51.02
2023-03-06T16:13:04.166Z,51.30
2023-03-06T16:18:12.680Z,51.25
2023-03-06T16:23:18.637Z,51.63
2023-03-06T16:28:24.075Z,51.49
2023-03-06T16:33:29.633Z,51.57
2023-03-06T16:38:35.098Z,51.98
2023-03-06T16:43:40.662Z,51.96
2023-03-06T16:48:46.796Z,51.87
2023-03-06T16:53:52.314Z,51.87
2023-03-06T16:58:57.807Z,52.31
2023-03-06T17:04:03.702Z,52.17
2023-03-06T17:09:10.938Z,52.16
2023-03-06T17:14:16.688Z,52.22
2023-03-06T17:19:22.307Z,52.63
2023-03-06T17:24:28.337Z,52.98
2023-03-06T17:29:33.925Z,53.42
2023-03-06T17:34:39.948Z,53.59
2023-03-06T17:39:45.580Z,53.85
2023-03-06T17:44:52.115Z,54.22
2023-03-06T17:49:57.588Z,54.66
2023-03-06T17:55:03.178Z,55.01
2023-03-06T18:00:11.025Z,55.48
2023-03-06T18:05:21.964Z,55.79
2023-03-06T18:10:27.566Z,56.13
2023-03-06T18:15:32.944Z,56.10
2023-03-06T18:20:46.983Z,56.67
2023-03-06T18:25:52.741Z,57.05
2023-03-06T18:30:58.252Z,57.03
2023-03-06T18:36:04.918Z,57.15
2023-03-06T18:41:11.312Z,57.53
2023-03-06T18:46:16.692Z,57.98
2023-03-06T18:51:22.160Z,58.36
2023-03-06T18:56:27.795Z,58.81
2023-03-06T19:01:33.853Z,58.89
2023-03-06T19:06:40.914Z,59.38
2023-03-06T19:11:47.119Z,59.89
2023-03-06T19:16:52.744Z,59.85
2023-03-06T19:22:02.074Z,60.12
2023-03-06T19:27:07.528Z,60.79
2023-03-06T19:32:13.423Z,60.78
2023-03-06T19:37:19.389Z,61.11
2023-03-06T19:42:24.842Z,61.67
2023-03-06T19:47:30.248Z,62.17
2023-03-06T19:52:39.031Z,62.12
2023-03-06T19:57:45.425Z,62.44
2023-03-06T20:02:50.884Z,62.76
2023-03-06T20:07:56.336Z,63.12
2023-03-06T20:13:01.891Z,63.54
2023-03-06T20:18:07.501Z,64.05
2023-03-06T20:23:16.249Z,64.30
2023-03-06T20:28:20.946Z,64.61
2023-03-06T20:33:27.323Z,64.78
2023-03-06T20:38:32.922Z,64.82
2023-03-06T20:43:38.422Z,65.18
2023-03-06T20:48:44.724Z,65.41
2023-03-06T20:53:51.478Z,65.74
2023-03-06T20:58:58.725Z,65.91
2023-03-06T21:04:05.075Z,65.90
2023-03-06T21:09:11.453Z,66.08
2023-03-06T21:14:17.398Z,66.25
2023-03-06T21:19:22.977Z,66.54
2023-03-06T21:24:28.598Z,66.71
2023-03-06T21:29:34.191Z,66.94
2023-03-06T21:34:39.718Z,67.06
2023-03-06T21:39:45.405Z,67.04
2023-03-06T21:44:50.814Z,67.13
2023-03-06T21:49:56.380Z,67.25
2023-03-06T21:55:01.904Z,67.11
2023-03-06T22:00:12.943Z,67.09
2023-03-06T22:05:18.831Z,67.31
2023-03-06T22:10:24.217Z,67.25
2023-03-06T22:15:31.292Z,67.23
2023-03-06T22:20:36.907Z,67.23
2023-03-06T22:25:42.560Z,67.26
2023-03-06T22:30:48.069Z,67.47
2023-03-06T22:35:53.664Z,67.63
2023-03-06T22:41:00.134Z,67.89
2023-03-06T22:46:17.339Z,67.98
2023-03-06T22:51:23.393Z,68.40
2023-03-06T22:56:28.863Z,68.33
2023-03-06T23:01:36.298Z,68.44
2023-03-06T23:06:43.614Z,68.58
2023-03-06T23:11:52.172Z,68.62
2023-03-06T23:17:16.058Z,69.54
2023-03-06T23:22:39.728Z,68.70
2023-03-06T23:28:03.626Z,68.68
2023-03-06T23:33:10.065Z,69.03
2023-03-06T23:38:15.999Z,68.91
2023-03-06T23:43:22.852Z,69.22
2023-03-06T23:48:28.848Z,69.24
2023-03-06T23:53:34.213Z,69.23
2023-03-06T23:58:40.038Z,69.58
